sensor_id;sensor_type;location;lat;lon;timestamp;temperature;humidity
9057;DHT22;4563;54.756;9.400;2023-06-10T00:00:41;19.00;56.30
9057;DHT22;4563;54.756;9.400;2023-06-10T00:03:09;19.00;56.30
9057;DHT22;4563;54.756;9.400;2023-06-10T00:05:36;19.00;56.40
9057;DHT22;4563;54.756;9.400;2023-06-10T00:08:04;18.90;56.40
9057;DHT22;4563;54.756;9.400;2023-06-10T00:10:33;18.90;56.40
9057;DHT22;4563;54.756;9.400;2023-06-10T00:13:00;18.90;56.50
9057;DHT22;4563;54.756;9.400;2023-06-10T00:15:27;18.80;56.50
9057;DHT22;4563;54.756;9.400;2023-06-10T00:17:54;18.80;56.60
9057;DHT22;4563;54.756;9.400;2023-06-10T00:20:23;18.80;56.60
9057;DHT22;4563;54.756;9.400;2023-06-10T00:22:50;18.80;56.70
9057;DHT22;4563;54.756;9.400;2023-06-10T00:25:17;18.80;56.70
9057;DHT22;4563;54.756;9.400;2023-06-10T00:27:44;18.70;56.70
9057;DHT22;4563;54.756;9.400;2023-06-10T00:30:12;18.70;56.70
9057;DHT22;4563;54.756;9.400;2023-06-10T00:32:38;18.70;56.70
9057;DHT22;4563;54.756;9.400;2023-06-10T00:35:06;18.70;56.80
9057;DHT22;4563;54.756;9.400;2023-06-10T00:37:34;18.70;56.90
9057;DHT22;4563;54.756;9.400;2023-06-10T00:40:02;18.70;56.90
9057;DHT22;4563;54.756;9.400;2023-06-10T00:42:29;18.60;56.80
9057;DHT22;4563;54.756;9.400;2023-06-10T00:44:55;18.60;56.70
9057;DHT22;4563;54.756;9.400;2023-06-10T00:47:22;18.60;56.80
9057;DHT22;4563;54.756;9.400;2023-06-10T00:49:49;18.60;56.80
9057;DHT22;4563;54.756;9.400;2023-06-10T00:52:18;18.60;56.90
9057;DHT22;4563;54.756;9.400;2023-06-10T00:54:46;18.50;56.70
9057;DHT22;4563;54.756;9.400;2023-06-10T00:57:13;18.50;56.80
9057;DHT22;4563;54.756;9.400;2023-06-10T00:59:41;18.50;56.80
9057;DHT22;4563;54.756;9.400;2023-06-10T01:02:08;18.50;56.80
9057;DHT22;4563;54.756;9.400;2023-06-10T01:04:34;18.50;56.80
9057;DHT22;4563;54.756;9.400;2023-06-10T01:07:14;18.40;56.70
9057;DHT22;4563;54.756;9.400;2023-06-10T01:09:49;18.40;56.80
9057;DHT22;4563;54.756;9.400;2023-06-10T01:12:28;18.40;56.70
9057;DHT22;4563;54.756;9.400;2023-06-10T01:14:58;18.40;56.80
9057;DHT22;4563;54.756;9.400;2023-06-10T01:17:26;18.40;56.80
9057;DHT22;4563;54.756;9.400;2023-06-10T01:19:54;18.40;56.80
9057;DHT22;4563;54.756;9.400;2023-06-10T01:22:23;18.40;56.80
9057;DHT22;4563;54.756;9.400;2023-06-10T01:24:52;18.30;56.80
9057;DHT22;4563;54.756;9.400;2023-06-10T01:27:21;18.40;56.80
9057;DHT22;4563;54.756;9.400;2023-06-10T01:29:53;18.30;56.80
9057;DHT22;4563;54.756;9.400;2023-06-10T01:32:28;18.30;56.80
9057;DHT22;4563;54.756;9.400;2023-06-10T01:34:59;18.30;56.90
9057;DHT22;4563;54.756;9.400;2023-06-10T01:37:28;18.30;56.90
9057;DHT22;4563;54.756;9.400;2023-06-10T01:39:57;18.30;57.00
9057;DHT22;4563;54.756;9.400;2023-06-10T01:42:25;18.30;57.00
9057;DHT22;4563;54.756;9.400;2023-06-10T01:44:52;18.20;57.00
9057;DHT22;4563;54.756;9.400;2023-06-10T01:47:19;18.20;57.00
9057;DHT22;4563;54.756;9.400;2023-06-10T01:49:46;18.20;57.00
9057;DHT22;4563;54.756;9.400;2023-06-10T01:52:13;18.20;57.10
9057;DHT22;4563;54.756;9.400;2023-06-10T01:54:41;18.20;57.10
9057;DHT22;4563;54.756;9.400;2023-06-10T01:57:08;18.20;57.20
9057;DHT22;4563;54.756;9.400;2023-06-10T01:59:35;18.10;57.10
9057;DHT22;4563;54.756;9.400;2023-06-10T02:02:03;18.10;57.20
9057;DHT22;4563;54.756;9.400;2023-06-10T02:04:30;18.10;57.20
9057;DHT22;4563;54.756;9.400;2023-06-10T02:06:57;18.10;57.30
9057;DHT22;4563;54.756;9.400;2023-06-10T02:09:24;18.10;57.30
9057;DHT22;4563;54.756;9.400;2023-06-10T02:11:52;18.00;57.20
9057;DHT22;4563;54.756;9.400;2023-06-10T02:14:19;18.10;57.30
9057;DHT22;4563;54.756;9.400;2023-06-10T02:16:46;18.00;57.20
9057;DHT22;4563;54.756;9.400;2023-06-10T02:19:13;18.00;57.30
9057;DHT22;4563;54.756;9.400;2023-06-10T02:21:40;18.10;57.40
9057;DHT22;4563;54.756;9.400;2023-06-10T02:24:07;18.00;57.30
9057;DHT22;4563;54.756;9.400;2023-06-10T02:26:34;18.00;57.30
9057;DHT22;4563;54.756;9.400;2023-06-10T02:29:02;18.00;57.30
9057;DHT22;4563;54.756;9.400;2023-06-10T02:31:29;18.00;57.30
9057;DHT22;4563;54.756;9.400;2023-06-10T02:33:55;18.00;57.30
9057;DHT22;4563;54.756;9.400;2023-06-10T02:36:22;18.00;57.40
9057;DHT22;4563;54.756;9.400;2023-06-10T02:38:49;17.90;57.30
9057;DHT22;4563;54.756;9.400;2023-06-10T02:41:19;17.90;57.40
9057;DHT22;4563;54.756;9.400;2023-06-10T02:43:47;17.90;57.40
9057;DHT22;4563;54.756;9.400;2023-06-10T02:46:15;17.90;57.40
9057;DHT22;4563;54.756;9.400;2023-06-10T02:48:42;17.90;57.40
9057;DHT22;4563;54.756;9.400;2023-06-10T02:51:10;17.90;57.50
9057;DHT22;4563;54.756;9.400;2023-06-10T02:53:36;17.80;57.40
9057;DHT22;4563;54.756;9.400;2023-06-10T02:56:03;17.90;57.40
9057;DHT22;4563;54.756;9.400;2023-06-10T02:58:30;17.80;57.40
9057;DHT22;4563;54.756;9.400;2023-06-10T03:00:57;17.80;57.40
9057;DHT22;4563;54.756;9.400;2023-06-10T03:03:26;17.80;57.50
9057;DHT22;4563;54.756;9.400;2023-06-10T03:05:53;17.80;57.50
9057;DHT22;4563;54.756;9.400;2023-06-10T03:08:19;17.80;57.40
9057;DHT22;4563;54.756;9.400;2023-06-10T03:10:46;17.80;57.50
9057;DHT22;4563;54.756;9.400;2023-06-10T03:13:13;17.80;57.60
9057;DHT22;4563;54.756;9.400;2023-06-10T03:15:41;17.70;57.50
9057;DHT22;4563;54.756;9.400;2023-06-10T03:18:07;17.80;57.60
9057;DHT22;4563;54.756;9.400;2023-06-10T03:20:35;17.70;57.40
9057;DHT22;4563;54.756;9.400;2023-06-10T03:23:03;17.70;57.50
9057;DHT22;4563;54.756;9.400;2023-06-10T03:25:30;17.70;57.60
9057;DHT22;4563;54.756;9.400;2023-06-10T03:27:57;17.70;57.50
9057;DHT22;4563;54.756;9.400;2023-06-10T03:30:24;17.70;57.60
9057;DHT22;4563;54.756;9.400;2023-06-10T03:32:50;17.70;57.60
9057;DHT22;4563;54.756;9.400;2023-06-10T03:35:17;17.70;57.60
9057;DHT22;4563;54.756;9.400;2023-06-10T03:37:45;17.70;57.70
9057;DHT22;4563;54.756;9.400;2023-06-10T03:40:12;17.70;57.80
9057;DHT22;4563;54.756;9.400;2023-06-10T03:42:39;17.70;57.80
9057;DHT22;4563;54.756;9.400;2023-06-10T03:45:06;17.60;57.80
9057;DHT22;4563;54.756;9.400;2023-06-10T03:47:34;17.60;58.00
9057;DHT22;4563;54.756;9.400;2023-06-10T03:50:01;17.70;58.00
9057;DHT22;4563;54.756;9.400;2023-06-10T03:52:28;17.70;58.00
9057;DHT22;4563;54.756;9.400;2023-06-10T03:54:57;17.70;58.10
9057;DHT22;4563;54.756;9.400;2023-06-10T03:57:23;17.70;58.10
9057;DHT22;4563;54.756;9.400;2023-06-10T03:59:51;17.60;58.70
9057;DHT22;4563;54.756;9.400;2023-06-10T04:02:18;17.70;58.30
9057;DHT22;4563;54.756;9.400;2023-06-10T04:04:44;17.70;58.30
9057;DHT22;4563;54.756;9.400;2023-06-10T04:07:11;17.70;58.40
9057;DHT22;4563;54.756;9.400;2023-06-10T04:09:39;17.70;58.50
9057;DHT22;4563;54.756;9.400;2023-06-10T04:12:08;17.60;58.40
9057;DHT22;4563;54.756;9.400;2023-06-10T04:14:37;17.60;58.50
9057;DHT22;4563;54.756;9.400;2023-06-10T04:17:05;17.70;58.50
9057;DHT22;4563;54.756;9.400;2023-06-10T04:19:33;17.70;58.70
9057;DHT22;4563;54.756;9.400;2023-06-10T04:22:00;17.70;58.60
9057;DHT22;4563;54.756;9.400;2023-06-10T04:24:27;17.70;58.70
9057;DHT22;4563;54.756;9.400;2023-06-10T04:26:54;17.70;58.60
9057;DHT22;4563;54.756;9.400;2023-06-10T04:29:22;17.70;58.60
9057;DHT22;4563;54.756;9.400;2023-06-10T04:31:49;17.70;58.60
9057;DHT22;4563;54.756;9.400;2023-06-10T04:34:16;17.70;58.60
9057;DHT22;4563;54.756;9.400;2023-06-10T04:36:43;17.70;58.60
9057;DHT22;4563;54.756;9.400;2023-06-10T04:39:09;17.70;58.60
9057;DHT22;4563;54.756;9.400;2023-06-10T04:41:37;17.80;58.70
9057;DHT22;4563;54.756;9.400;2023-06-10T04:44:04;17.80;58.70
9057;DHT22;4563;54.756;9.400;2023-06-10T04:46:32;17.80;58.70
9057;DHT22;4563;54.756;9.400;2023-06-10T04:48:58;17.80;58.60
9057;DHT22;4563;54.756;9.400;2023-06-10T04:51:25;17.90;58.70
9057;DHT22;4563;54.756;9.400;2023-06-10T04:53:52;17.90;58.70
9057;DHT22;4563;54.756;9.400;2023-06-10T04:56:19;17.90;58.70
9057;DHT22;4563;54.756;9.400;2023-06-10T04:58:47;18.00;58.70
9057;DHT22;4563;54.756;9.400;2023-06-10T05:01:14;18.00;58.70
9057;DHT22;4563;54.756;9.400;2023-06-10T05:03:42;18.00;58.60
9057;DHT22;4563;54.756;9.400;2023-06-10T05:06:09;18.10;58.60
9057;DHT22;4563;54.756;9.400;2023-06-10T05:08:36;18.10;58.60
9057;DHT22;4563;54.756;9.400;2023-06-10T05:11:02;18.10;58.50
9057;DHT22;4563;54.756;9.400;2023-06-10T05:13:29;18.20;58.50
9057;DHT22;4563;54.756;9.400;2023-06-10T05:15:56;18.20;58.60
9057;DHT22;4563;54.756;9.400;2023-06-10T05:18:23;18.30;58.70
9057;DHT22;4563;54.756;9.400;2023-06-10T05:20:51;18.30;58.50
9057;DHT22;4563;54.756;9.400;2023-06-10T05:23:19;18.40;58.70
9057;DHT22;4563;54.756;9.400;2023-06-10T05:25:46;18.40;58.70
9057;DHT22;4563;54.756;9.400;2023-06-10T05:28:13;18.50;58.60
9057;DHT22;4563;54.756;9.400;2023-06-10T05:30:40;18.60;58.80
9057;DHT22;4563;54.756;9.400;2023-06-10T05:33:07;18.60;58.70
9057;DHT22;4563;54.756;9.400;2023-06-10T05:35:33;18.70;58.80
9057;DHT22;4563;54.756;9.400;2023-06-10T05:38:02;18.80;58.90
9057;DHT22;4563;54.756;9.400;2023-06-10T05:40:29;18.80;58.90
9057;DHT22;4563;54.756;9.400;2023-06-10T05:42:56;18.90;58.90
9057;DHT22;4563;54.756;9.400;2023-06-10T05:45:23;19.00;58.90
9057;DHT22;4563;54.756;9.400;2023-06-10T05:47:50;19.10;58.80
9057;DHT22;4563;54.756;9.400;2023-06-10T05:50:17;19.20;58.80
9057;DHT22;4563;54.756;9.400;2023-06-10T05:52:44;19.20;58.70
9057;DHT22;4563;54.756;9.400;2023-06-10T05:55:12;19.30;58.70
9057;DHT22;4563;54.756;9.400;2023-06-10T05:57:41;19.50;58.70
9057;DHT22;4563;54.756;9.400;2023-06-10T06:00:09;19.60;58.70
9057;DHT22;4563;54.756;9.400;2023-06-10T06:02:36;19.70;58.70
9057;DHT22;4563;54.756;9.400;2023-06-10T06:05:03;19.80;58.50
9057;DHT22;4563;54.756;9.400;2023-06-10T06:07:30;19.90;58.50
9057;DHT22;4563;54.756;9.400;2023-06-10T06:09:56;20.00;58.40
9057;DHT22;4563;54.756;9.400;2023-06-10T06:12:25;20.10;58.40
9057;DHT22;4563;54.756;9.400;2023-06-10T06:14:51;20.20;58.30
9057;DHT22;4563;54.756;9.400;2023-06-10T06:17:18;20.30;58.20
9057;DHT22;4563;54.756;9.400;2023-06-10T06:19:45;20.40;58.20
9057;DHT22;4563;54.756;9.400;2023-06-10T06:22:13;20.50;58.00
9057;DHT22;4563;54.756;9.400;2023-06-10T06:24:40;20.60;58.00
9057;DHT22;4563;54.756;9.400;2023-06-10T06:27:06;20.70;58.00
9057;DHT22;4563;54.756;9.400;2023-06-10T06:29:35;20.90;57.90
9057;DHT22;4563;54.756;9.400;2023-06-10T06:32:02;21.00;57.80
9057;DHT22;4563;54.756;9.400;2023-06-10T06:34:28;21.10;57.70
9057;DHT22;4563;54.756;9.400;2023-06-10T06:36:55;21.20;57.60
9057;DHT22;4563;54.756;9.400;2023-06-10T06:39:22;21.40;57.40
9057;DHT22;4563;54.756;9.400;2023-06-10T06:41:49;21.50;57.10
9057;DHT22;4563;54.756;9.400;2023-06-10T06:44:16;21.60;56.90
9057;DHT22;4563;54.756;9.400;2023-06-10T06:46:44;21.70;56.90
9057;DHT22;4563;54.756;9.400;2023-06-10T06:49:11;21.80;56.90
9057;DHT22;4563;54.756;9.400;2023-06-10T06:51:37;21.90;56.70
9057;DHT22;4563;54.756;9.400;2023-06-10T06:54:04;22.00;56.70
9057;DHT22;4563;54.756;9.400;2023-06-10T06:56:31;22.10;57.00
9057;DHT22;4563;54.756;9.400;2023-06-10T06:58:58;22.10;56.20
9057;DHT22;4563;54.756;9.400;2023-06-10T07:01:25;22.20;56.00
9057;DHT22;4563;54.756;9.400;2023-06-10T07:03:53;22.20;55.90
9057;DHT22;4563;54.756;9.400;2023-06-10T07:06:20;22.30;55.70
9057;DHT22;4563;54.756;9.400;2023-06-10T07:08:46;22.40;55.70
9057;DHT22;4563;54.756;9.400;2023-06-10T07:11:13;22.40;55.50
9057;DHT22;4563;54.756;9.400;2023-06-10T07:13:41;22.40;55.40
9057;DHT22;4563;54.756;9.400;2023-06-10T07:16:08;22.50;55.30
9057;DHT22;4563;54.756;9.400;2023-06-10T07:18:35;22.50;55.40
9057;DHT22;4563;54.756;9.400;2023-06-10T07:21:03;22.50;55.10
9057;DHT22;4563;54.756;9.400;2023-06-10T07:23:30;22.50;55.10
9057;DHT22;4563;54.756;9.400;2023-06-10T07:25:57;22.50;55.00
9057;DHT22;4563;54.756;9.400;2023-06-10T07:28:23;22.50;54.90
9057;DHT22;4563;54.756;9.400;2023-06-10T07:30:51;22.60;55.00
9057;DHT22;4563;54.756;9.400;2023-06-10T07:33:17;22.60;55.10
9057;DHT22;4563;54.756;9.400;2023-06-10T07:35:44;22.60;55.20
9057;DHT22;4563;54.756;9.400;2023-06-10T07:38:12;22.70;55.20
9057;DHT22;4563;54.756;9.400;2023-06-10T07:40:39;22.80;55.30
9057;DHT22;4563;54.756;9.400;2023-06-10T07:43:06;22.90;55.40
9057;DHT22;4563;54.756;9.400;2023-06-10T07:45:33;23.00;55.30
9057;DHT22;4563;54.756;9.400;2023-06-10T07:48:00;23.10;55.30
9057;DHT22;4563;54.756;9.400;2023-06-10T07:50:27;23.30;55.50
9057;DHT22;4563;54.756;9.400;2023-06-10T07:52:53;23.40;55.30
9057;DHT22;4563;54.756;9.400;2023-06-10T07:55:22;23.60;55.40
9057;DHT22;4563;54.756;9.400;2023-06-10T07:57:51;23.70;55.40
9057;DHT22;4563;54.756;9.400;2023-06-10T08:00:18;23.90;55.40
9057;DHT22;4563;54.756;9.400;2023-06-10T08:02:45;24.00;55.30
9057;DHT22;4563;54.756;9.400;2023-06-10T08:05:12;24.20;55.30
9057;DHT22;4563;54.756;9.400;2023-06-10T08:07:39;24.30;55.00
9057;DHT22;4563;54.756;9.400;2023-06-10T08:10:07;24.50;55.20
9057;DHT22;4563;54.756;9.400;2023-06-10T08:12:35;24.70;54.90
9057;DHT22;4563;54.756;9.400;2023-06-10T08:15:03;24.90;55.20
9057;DHT22;4563;54.756;9.400;2023-06-10T08:17:30;25.00;54.60
9057;DHT22;4563;54.756;9.400;2023-06-10T08:19:57;25.20;54.60
9057;DHT22;4563;54.756;9.400;2023-06-10T08:22:24;25.40;54.40
9057;DHT22;4563;54.756;9.400;2023-06-10T08:24:51;25.50;54.50
9057;DHT22;4563;54.756;9.400;2023-06-10T08:27:17;25.70;53.90
9057;DHT22;4563;54.756;9.400;2023-06-10T08:29:46;25.90;54.00
9057;DHT22;4563;54.756;9.400;2023-06-10T08:32:12;26.00;54.00
9057;DHT22;4563;54.756;9.400;2023-06-10T08:34:39;26.20;53.80
9057;DHT22;4563;54.756;9.400;2023-06-10T08:37:06;26.40;53.50
9057;DHT22;4563;54.756;9.400;2023-06-10T08:39:33;26.60;53.20
9057;DHT22;4563;54.756;9.400;2023-06-10T08:42:08;26.70;53.00
9057;DHT22;4563;54.756;9.400;2023-06-10T08:44:36;26.80;54.80
9057;DHT22;4563;54.756;9.400;2023-06-10T08:47:11;27.00;52.70
9057;DHT22;4563;54.756;9.400;2023-06-10T08:49:43;27.20;54.20
9057;DHT22;4563;54.756;9.400;2023-06-10T08:52:14;27.30;54.10
9057;DHT22;4563;54.756;9.400;2023-06-10T08:54:43;27.50;54.00
9057;DHT22;4563;54.756;9.400;2023-06-10T08:57:13;27.60;52.00
9057;DHT22;4563;54.756;9.400;2023-06-10T08:59:41;27.70;52.40
9057;DHT22;4563;54.756;9.400;2023-06-10T09:02:10;27.90;51.90
9057;DHT22;4563;54.756;9.400;2023-06-10T09:04:37;28.00;52.10
9057;DHT22;4563;54.756;9.400;2023-06-10T09:07:05;28.20;51.40
9057;DHT22;4563;54.756;9.400;2023-06-10T09:09:35;28.30;51.10
9057;DHT22;4563;54.756;9.400;2023-06-10T09:12:02;28.50;51.90
9057;DHT22;4563;54.756;9.400;2023-06-10T09:14:29;28.60;51.00
9057;DHT22;4563;54.756;9.400;2023-06-10T09:16:56;28.70;50.70
9057;DHT22;4563;54.756;9.400;2023-06-10T09:19:25;28.90;51.10
9057;DHT22;4563;54.756;9.400;2023-06-10T09:21:53;29.00;50.60
9057;DHT22;4563;54.756;9.400;2023-06-10T09:24:22;29.20;50.20
9057;DHT22;4563;54.756;9.400;2023-06-10T09:26:49;29.30;50.20
9057;DHT22;4563;54.756;9.400;2023-06-10T09:29:16;29.40;49.60
9057;DHT22;4563;54.756;9.400;2023-06-10T09:31:43;29.60;49.80
9057;DHT22;4563;54.756;9.400;2023-06-10T09:34:12;29.70;49.80
9057;DHT22;4563;54.756;9.400;2023-06-10T09:36:41;29.80;49.20
9057;DHT22;4563;54.756;9.400;2023-06-10T09:39:14;30.00;49.20
9057;DHT22;4563;54.756;9.400;2023-06-10T09:41:42;30.10;51.90
9057;DHT22;4563;54.756;9.400;2023-06-10T09:44:12;30.20;48.30
9057;DHT22;4563;54.756;9.400;2023-06-10T09:46:39;30.30;48.70
9057;DHT22;4563;54.756;9.400;2023-06-10T09:49:07;30.40;47.90
9057;DHT22;4563;54.756;9.400;2023-06-10T09:51:34;30.60;47.70
9057;DHT22;4563;54.756;9.400;2023-06-10T09:54:03;30.70;47.50
9057;DHT22;4563;54.756;9.400;2023-06-10T09:56:34;30.80;48.00
9057;DHT22;4563;54.756;9.400;2023-06-10T09:59:02;30.90;48.10
9057;DHT22;4563;54.756;9.400;2023-06-10T10:01:30;31.10;46.80
9057;DHT22;4563;54.756;9.400;2023-06-10T10:03:59;31.20;47.10
9057;DHT22;4563;54.756;9.400;2023-06-10T10:06:26;31.30;46.50
9057;DHT22;4563;54.756;9.400;2023-06-10T10:08:54;31.40;46.30
9057;DHT22;4563;54.756;9.400;2023-06-10T10:11:23;31.50;46.00
9057;DHT22;4563;54.756;9.400;2023-06-10T10:13:52;31.60;45.70
9057;DHT22;4563;54.756;9.400;2023-06-10T10:16:20;31.70;45.30
9057;DHT22;4563;54.756;9.400;2023-06-10T10:18:52;31.80;45.40
9057;DHT22;4563;54.756;9.400;2023-06-10T10:21:23;31.90;46.20
9057;DHT22;4563;54.756;9.400;2023-06-10T10:23:57;32.00;45.10
9057;DHT22;4563;54.756;9.400;2023-06-10T10:26:27;32.10;45.60
9057;DHT22;4563;54.756;9.400;2023-06-10T10:29:05;32.20;45.00
9057;DHT22;4563;54.756;9.400;2023-06-10T10:31:35;32.30;46.60
9057;DHT22;4563;54.756;9.400;2023-06-10T10:34:06;32.40;44.40
9057;DHT22;4563;54.756;9.400;2023-06-10T10:36:34;32.50;44.30
9057;DHT22;4563;54.756;9.400;2023-06-10T10:39:03;32.50;43.60
9057;DHT22;4563;54.756;9.400;2023-06-10T10:41:32;32.60;43.60
9057;DHT22;4563;54.756;9.400;2023-06-10T10:44:01;32.70;43.50
9057;DHT22;4563;54.756;9.400;2023-06-10T10:46:30;32.80;43.30
9057;DHT22;4563;54.756;9.400;2023-06-10T10:49:08;32.80;42.80
9057;DHT22;4563;54.756;9.400;2023-06-10T10:51:35;32.90;42.90
9057;DHT22;4563;54.756;9.400;2023-06-10T10:54:14;32.90;42.80
9057;DHT22;4563;54.756;9.400;2023-06-10T10:57:13;33.10;46.50
9057;DHT22;4563;54.756;9.400;2023-06-10T10:59:54;33.10;47.20
9057;DHT22;4563;54.756;9.400;2023-06-10T11:02:42;33.30;47.20
9057;DHT22;4563;54.756;9.400;2023-06-10T11:05:10;33.40;46.50
9057;DHT22;4563;54.756;9.400;2023-06-10T11:07:37;33.40;42.10
9057;DHT22;4563;54.756;9.400;2023-06-10T11:10:07;33.50;41.90
9057;DHT22;4563;54.756;9.400;2023-06-10T11:12:52;33.50;42.10
9057;DHT22;4563;54.756;9.400;2023-06-10T11:15:20;33.60;46.70
9057;DHT22;4563;54.756;9.400;2023-06-10T11:18:09;33.70;41.50
9057;DHT22;4563;54.756;9.400;2023-06-10T11:20:52;33.70;47.20
9057;DHT22;4563;54.756;9.400;2023-06-10T11:23:34;33.80;46.10
9057;DHT22;4563;54.756;9.400;2023-06-10T11:26:18;33.80;45.80
9057;DHT22;4563;54.756;9.400;2023-06-10T11:29:09;33.80;45.40
9057;DHT22;4563;54.756;9.400;2023-06-10T11:31:44;33.80;47.10
9057;DHT22;4563;54.756;9.400;2023-06-10T11:34:13;33.80;43.00
9057;DHT22;4563;54.756;9.400;2023-06-10T11:36:41;33.70;40.40
9057;DHT22;4563;54.756;9.400;2023-06-10T11:39:11;33.70;40.30
9057;DHT22;4563;54.756;9.400;2023-06-10T11:41:39;33.60;40.30
9057;DHT22;4563;54.756;9.400;2023-06-10T11:44:10;33.70;40.00
9057;DHT22;4563;54.756;9.400;2023-06-10T11:46:37;33.60;40.60
9057;DHT22;4563;54.756;9.400;2023-06-10T11:49:04;33.50;40.10
9057;DHT22;4563;54.756;9.400;2023-06-10T11:51:34;33.40;39.90
9057;DHT22;4563;54.756;9.400;2023-06-10T11:54:01;33.40;40.00
9057;DHT22;4563;54.756;9.400;2023-06-10T11:56:29;33.20;40.30
9057;DHT22;4563;54.756;9.400;2023-06-10T11:59:00;33.20;40.40
9057;DHT22;4563;54.756;9.400;2023-06-10T12:01:32;33.10;40.40
9057;DHT22;4563;54.756;9.400;2023-06-10T12:04:01;33.00;40.20
9057;DHT22;4563;54.756;9.400;2023-06-10T12:06:38;32.80;40.00
9057;DHT22;4563;54.756;9.400;2023-06-10T12:09:05;32.70;41.70
9057;DHT22;4563;54.756;9.400;2023-06-10T12:11:32;32.60;40.10
9057;DHT22;4563;54.756;9.400;2023-06-10T12:13:59;32.50;40.20
9057;DHT22;4563;54.756;9.400;2023-06-10T12:16:28;32.40;40.10
9057;DHT22;4563;54.756;9.400;2023-06-10T12:19:02;32.30;40.10
9057;DHT22;4563;54.756;9.400;2023-06-10T12:21:31;32.20;42.00
9057;DHT22;4563;54.756;9.400;2023-06-10T12:24:06;32.00;40.60
9057;DHT22;4563;54.756;9.400;2023-06-10T12:26:38;31.90;41.20
9057;DHT22;4563;54.756;9.400;2023-06-10T12:29:18;31.80;40.40
9057;DHT22;4563;54.756;9.400;2023-06-10T12:31:58;31.60;42.10
9057;DHT22;4563;54.756;9.400;2023-06-10T12:34:33;31.50;42.00
9057;DHT22;4563;54.756;9.400;2023-06-10T12:37:01;31.40;41.30
9057;DHT22;4563;54.756;9.400;2023-06-10T12:39:28;31.30;41.00
9057;DHT22;4563;54.756;9.400;2023-06-10T12:41:55;31.20;40.70
9057;DHT22;4563;54.756;9.400;2023-06-10T12:44:29;31.10;40.70
9057;DHT22;4563;54.756;9.400;2023-06-10T12:46:56;31.00;41.40
9057;DHT22;4563;54.756;9.400;2023-06-10T12:49:23;30.90;41.10
9057;DHT22;4563;54.756;9.400;2023-06-10T12:51:53;30.80;41.30
9057;DHT22;4563;54.756;9.400;2023-06-10T12:54:20;30.70;41.10
9057;DHT22;4563;54.756;9.400;2023-06-10T12:56:47;30.60;41.30
9057;DHT22;4563;54.756;9.400;2023-06-10T12:59:14;30.50;41.30
9057;DHT22;4563;54.756;9.400;2023-06-10T13:01:41;30.30;41.40
9057;DHT22;4563;54.756;9.400;2023-06-10T13:04:07;30.20;41.70
9057;DHT22;4563;54.756;9.400;2023-06-10T13:06:35;30.10;41.60
9057;DHT22;4563;54.756;9.400;2023-06-10T13:09:05;30.00;41.80
9057;DHT22;4563;54.756;9.400;2023-06-10T13:11:33;29.80;41.80
9057;DHT22;4563;54.756;9.400;2023-06-10T13:14:01;29.70;41.80
9057;DHT22;4563;54.756;9.400;2023-06-10T13:16:28;29.60;42.10
9057;DHT22;4563;54.756;9.400;2023-06-10T13:18:55;29.50;42.40
9057;DHT22;4563;54.756;9.400;2023-06-10T13:21:22;29.30;42.40
9057;DHT22;4563;54.756;9.400;2023-06-10T13:23:48;29.20;42.30
9057;DHT22;4563;54.756;9.400;2023-06-10T13:26:19;29.10;42.60
9057;DHT22;4563;54.756;9.400;2023-06-10T13:28:47;28.90;42.70
9057;DHT22;4563;54.756;9.400;2023-06-10T13:31:21;28.80;42.70
9057;DHT22;4563;54.756;9.400;2023-06-10T13:33:49;28.70;42.90
9057;DHT22;4563;54.756;9.400;2023-06-10T13:36:16;28.60;43.20
9057;DHT22;4563;54.756;9.400;2023-06-10T13:38:43;28.50;43.60
9057;DHT22;4563;54.756;9.400;2023-06-10T13:41:10;28.40;43.50
9057;DHT22;4563;54.756;9.400;2023-06-10T13:43:39;28.30;43.60
9057;DHT22;4563;54.756;9.400;2023-06-10T13:46:06;28.20;43.50
9057;DHT22;4563;54.756;9.400;2023-06-10T13:48:33;28.10;43.60
9057;DHT22;4563;54.756;9.400;2023-06-10T13:51:00;28.00;43.90
9057;DHT22;4563;54.756;9.400;2023-06-10T13:53:28;27.90;44.00
9057;DHT22;4563;54.756;9.400;2023-06-10T13:55:54;27.80;44.20
9057;DHT22;4563;54.756;9.400;2023-06-10T13:58:21;27.70;44.20
9057;DHT22;4563;54.756;9.400;2023-06-10T14:00:50;27.60;44.90
9057;DHT22;4563;54.756;9.400;2023-06-10T14:03:17;27.50;44.40
9057;DHT22;4563;54.756;9.400;2023-06-10T14:05:43;27.40;44.60
9057;DHT22;4563;54.756;9.400;2023-06-10T14:08:11;27.30;44.70
9057;DHT22;4563;54.756;9.400;2023-06-10T14:10:38;27.20;44.90
9057;DHT22;4563;54.756;9.400;2023-06-10T14:13:05;27.20;44.90
9057;DHT22;4563;54.756;9.400;2023-06-10T14:15:32;27.10;45.10
9057;DHT22;4563;54.756;9.400;2023-06-10T14:18:01;27.00;45.20
9057;DHT22;4563;54.756;9.400;2023-06-10T14:20:27;26.90;45.40
9057;DHT22;4563;54.756;9.400;2023-06-10T14:22:57;26.90;45.50
9057;DHT22;4563;54.756;9.400;2023-06-10T14:25:24;26.80;45.50
9057;DHT22;4563;54.756;9.400;2023-06-10T14:27:52;26.80;45.60
9057;DHT22;4563;54.756;9.400;2023-06-10T14:30:19;26.70;45.70
9057;DHT22;4563;54.756;9.400;2023-06-10T14:32:46;26.60;45.80
9057;DHT22;4563;54.756;9.400;2023-06-10T14:35:14;26.60;45.90
9057;DHT22;4563;54.756;9.400;2023-06-10T14:37:41;26.50;46.00
9057;DHT22;4563;54.756;9.400;2023-06-10T14:40:11;26.50;46.30
9057;DHT22;4563;54.756;9.400;2023-06-10T14:42:38;26.40;46.40
9057;DHT22;4563;54.756;9.400;2023-06-10T14:45:06;26.30;46.40
9057;DHT22;4563;54.756;9.400;2023-06-10T14:47:33;26.30;46.50
9057;DHT22;4563;54.756;9.400;2023-06-10T14:50:02;26.20;46.60
9057;DHT22;4563;54.756;9.400;2023-06-10T14:52:30;26.20;46.90
9057;DHT22;4563;54.756;9.400;2023-06-10T14:54:57;26.10;46.80
9057;DHT22;4563;54.756;9.400;2023-06-10T14:57:24;26.10;46.80
9057;DHT22;4563;54.756;9.400;2023-06-10T14:59:51;26.00;47.10
9057;DHT22;4563;54.756;9.400;2023-06-10T15:02:18;25.90;47.10
9057;DHT22;4563;54.756;9.400;2023-06-10T15:04:44;25.90;47.30
9057;DHT22;4563;54.756;9.400;2023-06-10T15:07:11;25.90;47.40
9057;DHT22;4563;54.756;9.400;2023-06-10T15:09:42;25.80;47.60
9057;DHT22;4563;54.756;9.400;2023-06-10T15:12:12;25.70;47.60
9057;DHT22;4563;54.756;9.400;2023-06-10T15:14:38;25.70;47.60
9057;DHT22;4563;54.756;9.400;2023-06-10T15:17:06;25.60;47.80
9057;DHT22;4563;54.756;9.400;2023-06-10T15:19:32;25.60;47.90
9057;DHT22;4563;54.756;9.400;2023-06-10T15:21:59;25.60;47.90
9057;DHT22;4563;54.756;9.400;2023-06-10T15:24:26;25.50;48.00
9057;DHT22;4563;54.756;9.400;2023-06-10T15:26:55;25.50;48.10
9057;DHT22;4563;54.756;9.400;2023-06-10T15:29:21;25.50;48.30
9057;DHT22;4563;54.756;9.400;2023-06-10T15:31:48;25.50;48.40
9057;DHT22;4563;54.756;9.400;2023-06-10T15:34:15;25.40;48.40
9057;DHT22;4563;54.756;9.400;2023-06-10T15:36:42;25.40;48.40
9057;DHT22;4563;54.756;9.400;2023-06-10T15:39:09;25.30;48.80
9057;DHT22;4563;54.756;9.400;2023-06-10T15:41:35;25.20;48.60
9057;DHT22;4563;54.756;9.400;2023-06-10T15:44:04;25.20;48.60
9057;DHT22;4563;54.756;9.400;2023-06-10T15:46:31;25.20;48.50
9057;DHT22;4563;54.756;9.400;2023-06-10T15:49:00;25.20;48.70
9057;DHT22;4563;54.756;9.400;2023-06-10T15:51:26;25.10;48.80
9057;DHT22;4563;54.756;9.400;2023-06-10T15:53:53;25.10;49.00
9057;DHT22;4563;54.756;9.400;2023-06-10T15:56:20;25.10;49.00
9057;DHT22;4563;54.756;9.400;2023-06-10T15:58:48;25.00;49.20
9057;DHT22;4563;54.756;9.400;2023-06-10T16:01:16;25.00;49.40
9057;DHT22;4563;54.756;9.400;2023-06-10T16:03:44;25.00;49.60
9057;DHT22;4563;54.756;9.400;2023-06-10T16:06:11;24.90;49.70
9057;DHT22;4563;54.756;9.400;2023-06-10T16:08:37;24.90;49.60